Time;durP1;ratioP1;P1;durP2;ratioP2;P2;SDS_P1;SDS_P2;PMS_P1;PMS_P2;Temp;Humidity;BMP_temperature;BMP_pressure;BME280_temperature;BME280_humidity;BME280_pressure;Samples;Min_cycle;Max_cycle;Signal;HPM_P1;HPM_P2
2022/07/02 00:01:30;;;;;;;;;;;17.30;95.80;;;;;;4375481;32;43625;-76
2022/07/02 00:04:00;;;;;;;;;;;17.30;96.00;;;;;;4375877;32;43733;-77
2022/07/02 00:06:29;;;;;;;;;;;17.30;95.90;;;;;;4361891;32;45771;-75
2022/07/02 00:08:56;;;;;;;;;;;17.30;95.80;;;;;;4362122;32;42333;-76
2022/07/02 00:11:25;;;;;;;;;;;17.30;95.90;;;;;;4375872;32;43892;-76
2022/07/02 00:13:53;;;;;;;;;;;17.20;95.80;;;;;;4375810;32;44217;-76
2022/07/02 00:16:20;;;;;;;;;;;17.20;95.70;;;;;;4362113;32;42863;-76
2022/07/02 00:18:47;;;;;;;;;;;17.30;95.90;;;;;;4361871;32;42493;-76
2022/07/02 00:21:17;;;;;;;;;;;17.20;95.80;;;;;;4375759;32;43188;-75
2022/07/02 00:23:44;;;;;;;;;;;17.20;95.90;;;;;;4375576;32;43620;-76
2022/07/02 00:26:22;;;;;;;;;;;17.20;96.10;;;;;;4375541;32;42911;-76
2022/07/02 00:28:53;;;;;;;;;;;17.20;96.10;;;;;;4361927;32;43612;-76
2022/07/02 00:31:20;;;;;;;;;;;17.10;96.10;;;;;;4375446;32;43755;-76
2022/07/02 00:33:48;;;;;;;;;;;17.20;96.10;;;;;;4375394;32;43688;-76
2022/07/02 00:36:21;;;;;;;;;;;17.20;95.90;;;;;;4361963;32;44020;-76
2022/07/02 00:38:49;;;;;;;;;;;17.10;95.90;;;;;;4361739;32;44306;-76
2022/07/02 00:41:17;;;;;;;;;;;17.10;96.00;;;;;;4362123;32;43005;-76
2022/07/02 00:43:45;;;;;;;;;;;17.10;96.00;;;;;;4375216;32;43773;-76
2022/07/02 00:46:13;;;;;;;;;;;17.10;96.00;;;;;;4361580;32;43044;-75
2022/07/02 00:48:41;;;;;;;;;;;17.10;96.00;;;;;;4375325;32;42128;-75
2022/07/02 00:51:09;;;;;;;;;;;17.10;96.10;;;;;;4360081;32;42939;-76
2022/07/02 00:53:36;;;;;;;;;;;17.10;95.90;;;;;;4359986;32;42151;-77
2022/07/02 00:56:03;;;;;;;;;;;17.10;95.90;;;;;;4346597;32;44870;-76
2022/07/02 00:58:31;;;;;;;;;;;17.00;96.00;;;;;;4346776;32;45727;-75
2022/07/02 01:00:59;;;;;;;;;;;17.00;96.00;;;;;;4360024;32;43474;-75
2022/07/02 01:03:27;;;;;;;;;;;17.00;95.80;;;;;;4359683;32;42550;-76
2022/07/02 01:05:56;;;;;;;;;;;17.00;96.10;;;;;;4359973;32;43862;-75
2022/07/02 01:11:11;;;;;;;;;;;17.00;96.10;;;;;;4360140;32;42515;-75
2022/07/02 01:13:38;;;;;;;;;;;17.00;96.10;;;;;;4360194;32;43856;-76
2022/07/02 01:16:05;;;;;;;;;;;17.00;95.80;;;;;;4346251;32;43466;-75
2022/07/02 01:18:34;;;;;;;;;;;17.00;95.90;;;;;;4359673;32;43196;-76
2022/07/02 01:21:01;;;;;;;;;;;16.90;96.00;;;;;;4359759;32;43008;-76
2022/07/02 01:23:28;;;;;;;;;;;16.90;95.90;;;;;;4359864;32;43664;-76
2022/07/02 01:25:55;;;;;;;;;;;16.90;95.90;;;;;;4346649;33;42836;-75
2022/07/02 01:28:22;;;;;;;;;;;16.90;96.10;;;;;;4346217;33;43046;-76
2022/07/02 01:30:49;;;;;;;;;;;16.80;96.00;;;;;;4359460;33;41886;-76
2022/07/02 01:33:16;;;;;;;;;;;16.80;96.20;;;;;;4346211;33;44220;-76
2022/07/02 01:35:44;;;;;;;;;;;16.80;96.00;;;;;;4359739;33;44266;-76
2022/07/02 01:38:11;;;;;;;;;;;16.80;96.10;;;;;;4360035;33;43908;-76
2022/07/02 01:40:38;;;;;;;;;;;16.80;96.10;;;;;;4359992;33;43175;-76
2022/07/02 01:43:05;;;;;;;;;;;16.80;96.10;;;;;;4360004;33;43874;-76
2022/07/02 01:45:32;;;;;;;;;;;16.80;96.10;;;;;;4346190;33;42949;-76
2022/07/02 01:47:59;;;;;;;;;;;16.70;96.10;;;;;;4359470;33;42809;-75
2022/07/02 01:50:26;;;;;;;;;;;16.80;96.20;;;;;;4359326;33;42608;-75
2022/07/02 01:52:56;;;;;;;;;;;16.80;96.10;;;;;;4359349;33;44004;-76
2022/07/02 01:55:24;;;;;;;;;;;16.80;96.20;;;;;;4359804;33;42970;-75
2022/07/02 01:57:51;;;;;;;;;;;16.80;96.20;;;;;;4346420;33;44209;-75
2022/07/02 02:00:18;;;;;;;;;;;16.70;96.10;;;;;;4359340;33;44462;-75
2022/07/02 02:02:46;;;;;;;;;;;16.70;96.10;;;;;;4345851;33;42190;-76
2022/07/02 02:05:13;;;;;;;;;;;16.70;96.20;;;;;;4359338;33;42288;-76
2022/07/02 02:07:40;;;;;;;;;;;16.70;96.10;;;;;;4359780;33;42858;-76
2022/07/02 02:10:07;;;;;;;;;;;16.70;96.10;;;;;;4359232;33;44807;-76
2022/07/02 02:12:34;;;;;;;;;;;16.70;96.20;;;;;;4359725;33;43178;-76
2022/07/02 02:15:02;;;;;;;;;;;16.70;96.20;;;;;;4346491;33;43190;-76
2022/07/02 02:17:29;;;;;;;;;;;16.70;96.20;;;;;;4346097;33;43682;-76
2022/07/02 02:19:56;;;;;;;;;;;16.70;96.10;;;;;;4359314;33;43297;-76
2022/07/02 02:22:26;;;;;;;;;;;16.70;96.10;;;;;;4359108;33;42837;-76
2022/07/02 02:24:53;;;;;;;;;;;16.70;96.20;;;;;;4359120;33;43923;-76
2022/07/02 02:27:20;;;;;;;;;;;16.60;96.20;;;;;;4346543;33;43879;-76
2022/07/02 02:29:47;;;;;;;;;;;16.60;96.30;;;;;;4360380;32;43497;-77
2022/07/02 02:32:14;;;;;;;;;;;16.70;96.30;;;;;;4349046;32;43112;-75
2022/07/02 02:34:41;;;;;;;;;;;16.70;96.20;;;;;;4348582;32;43600;-76
2022/07/02 02:37:09;;;;;;;;;;;16.70;96.30;;;;;;4362251;32;42827;-76
2022/07/02 02:39:36;;;;;;;;;;;16.70;96.50;;;;;;4362168;32;43477;-76
2022/07/02 02:42:03;;;;;;;;;;;16.70;96.30;;;;;;4362330;32;43145;-76
2022/07/02 02:44:30;;;;;;;;;;;16.70;96.30;;;;;;4362028;32;43692;-76
2022/07/02 02:46:57;;;;;;;;;;;16.70;96.10;;;;;;4348546;32;42794;-76
2022/07/02 02:49:24;;;;;;;;;;;16.70;96.10;;;;;;4361888;32;43048;-76
2022/07/02 02:51:51;;;;;;;;;;;16.70;96.10;;;;;;4361907;32;42911;-76
2022/07/02 02:54:21;;;;;;;;;;;16.70;96.10;;;;;;4348725;32;44211;-77
2022/07/02 02:56:48;;;;;;;;;;;16.70;96.00;;;;;;4361694;32;42484;-76
2022/07/02 02:59:15;;;;;;;;;;;16.70;96.00;;;;;;4361959;32;43758;-76
2022/07/02 03:01:42;;;;;;;;;;;16.60;96.10;;;;;;4348009;32;43864;-76
2022/07/02 03:04:09;;;;;;;;;;;16.60;96.00;;;;;;4362018;32;44213;-75
2022/07/02 03:06:36;;;;;;;;;;;16.60;95.90;;;;;;4348074;32;42143;-76
2022/07/02 03:09:03;;;;;;;;;;;16.60;96.10;;;;;;4361424;32;42111;-75
2022/07/02 03:11:31;;;;;;;;;;;16.60;96.30;;;;;;4348059;32;43454;-76
2022/07/02 03:13:58;;;;;;;;;;;16.60;96.30;;;;;;4361878;32;44609;-76
2022/07/02 03:16:25;;;;;;;;;;;16.60;96.20;;;;;;4348502;32;43706;-76
2022/07/02 03:18:53;;;;;;;;;;;16.60;96.10;;;;;;4361716;32;43450;-76
2022/07/02 03:21:20;;;;;;;;;;;16.60;96.20;;;;;;4361640;32;44305;-76
2022/07/02 03:23:47;;;;;;;;;;;16.60;96.10;;;;;;4348242;32;45709;-76
2022/07/02 03:26:14;;;;;;;;;;;16.60;96.20;;;;;;4348232;32;44130;-75
2022/07/02 03:28:41;;;;;;;;;;;16.60;96.10;;;;;;4361367;32;42985;-75
2022/07/02 03:31:08;;;;;;;;;;;16.60;96.30;;;;;;4361368;32;43701;-75
2022/07/02 03:33:35;;;;;;;;;;;16.60;96.70;;;;;;4347619;32;45017;-75
2022/07/02 03:36:02;;;;;;;;;;;16.60;96.30;;;;;;4361417;32;44084;-75
2022/07/02 03:38:29;;;;;;;;;;;16.60;96.20;;;;;;4361376;32;44946;-76
2022/07/02 03:40:56;;;;;;;;;;;16.60;96.30;;;;;;4360943;32;42059;-76
2022/07/02 03:43:23;;;;;;;;;;;16.60;96.20;;;;;;4361379;32;43368;-75
2022/07/02 03:45:50;;;;;;;;;;;16.60;96.10;;;;;;4360832;32;43848;-76
2022/07/02 03:48:17;;;;;;;;;;;16.60;96.60;;;;;;4347806;32;42650;-75
2022/07/02 03:50:44;;;;;;;;;;;16.60;96.10;;;;;;4361054;32;45145;-75
2022/07/02 03:53:11;;;;;;;;;;;16.60;96.10;;;;;;4360732;32;43886;-76
2022/07/02 03:55:38;;;;;;;;;;;16.50;96.10;;;;;;4347683;32;42840;-76
2022/07/02 03:58:08;;;;;;;;;;;16.60;96.10;;;;;;4360788;32;43441;-76
2022/07/02 04:00:35;;;;;;;;;;;16.60;96.10;;;;;;4347686;32;44869;-75
2022/07/02 04:03:02;;;;;;;;;;;16.50;96.00;;;;;;4347075;32;42835;-76
2022/07/02 04:05:29;;;;;;;;;;;16.50;96.20;;;;;;4361019;32;42808;-76
2022/07/02 04:07:56;;;;;;;;;;;16.50;96.20;;;;;;4360744;32;42972;-75
2022/07/02 04:10:24;;;;;;;;;;;16.50;96.30;;;;;;4348025;32;20399;-75
2022/07/02 04:12:51;;;;;;;;;;;16.60;96.30;;;;;;4360380;32;45209;-75
2022/07/02 04:15:18;;;;;;;;;;;16.60;96.30;;;;;;4360776;32;43067;-75
2022/07/02 04:17:45;;;;;;;;;;;16.60;96.30;;;;;;4347509;32;43871;-76
2022/07/02 04:20:12;;;;;;;;;;;16.60;96.20;;;;;;4360408;32;43559;-75
2022/07/02 04:22:39;;;;;;;;;;;16.50;96.20;;;;;;4360674;32;43494;-75
2022/07/02 04:25:06;;;;;;;;;;;16.60;96.20;;;;;;4360371;32;42492;-75
2022/07/02 04:27:33;;;;;;;;;;;16.50;96.10;;;;;;4360532;32;43705;-75
2022/07/02 04:30:00;;;;;;;;;;;16.60;96.20;;;;;;4347404;32;42183;-76
2022/07/02 04:32:35;;;;;;;;;;;16.50;96.10;;;;;;4347745;32;43349;-76
2022/07/02 04:35:02;;;;;;;;;;;16.50;96.20;;;;;;4360077;32;44307;-76
2022/07/02 04:37:29;;;;;;;;;;;16.50;96.20;;;;;;4360119;32;42856;-76
2022/07/02 04:39:56;;;;;;;;;;;16.50;96.30;;;;;;4360426;32;42102;-75
2022/07/02 04:42:23;;;;;;;;;;;16.50;96.20;;;;;;4360342;32;43596;-75
2022/07/02 04:44:51;;;;;;;;;;;16.50;96.20;;;;;;4346644;32;39765;-76
2022/07/02 04:47:18;;;;;;;;;;;16.50;96.40;;;;;;4359960;32;44255;-76
2022/07/02 04:49:45;;;;;;;;;;;16.40;96.40;;;;;;4360440;32;43718;-76
2022/07/02 04:52:12;;;;;;;;;;;16.50;96.40;;;;;;4359447;32;44235;-75
2022/07/02 04:54:39;;;;;;;;;;;16.50;96.50;;;;;;4359914;32;43314;-75
2022/07/02 04:57:07;;;;;;;;;;;16.50;96.50;;;;;;4360339;32;43059;-76
2022/07/02 04:59:35;;;;;;;;;;;16.40;96.50;;;;;;4359668;32;42615;-76
2022/07/02 05:02:04;;;;;;;;;;;16.50;96.50;;;;;;4346471;32;42884;-75
2022/07/02 05:04:32;;;;;;;;;;;16.40;96.50;;;;;;4359654;32;42763;-75
2022/07/02 05:06:59;;;;;;;;;;;16.40;96.60;;;;;;4359964;32;44152;-75
2022/07/02 05:09:26;;;;;;;;;;;16.50;96.70;;;;;;4346324;32;43787;-76
2022/07/02 05:11:53;;;;;;;;;;;16.40;96.70;;;;;;4360144;32;43089;-75
2022/07/02 05:14:23;;;;;;;;;;;16.40;96.80;;;;;;4347048;32;43274;-75
2022/07/02 05:16:50;;;;;;;;;;;16.50;96.90;;;;;;4347039;32;43712;-76
2022/07/02 05:19:17;;;;;;;;;;;16.50;97.00;;;;;;4359721;32;43174;-76
2022/07/02 05:21:44;;;;;;;;;;;16.50;97.10;;;;;;4346424;32;43719;-75
2022/07/02 05:24:11;;;;;;;;;;;16.50;97.20;;;;;;4360046;32;43873;-76
2022/07/02 05:26:38;;;;;;;;;;;16.50;97.20;;;;;;4346219;33;43032;-75
2022/07/02 05:29:05;;;;;;;;;;;16.50;97.20;;;;;;4359981;33;44491;-75
2022/07/02 05:31:32;;;;;;;;;;;16.50;97.20;;;;;;4359455;33;43798;-75
2022/07/02 05:34:00;;;;;;;;;;;16.50;97.10;;;;;;4359659;33;43182;-75
2022/07/02 05:36:28;;;;;;;;;;;16.50;97.10;;;;;;4347482;33;19997;-76
2022/07/02 05:38:55;;;;;;;;;;;16.50;97.10;;;;;;4359890;33;43868;-75
2022/07/02 05:41:22;;;;;;;;;;;16.50;97.10;;;;;;4359749;33;44212;-76
2022/07/02 05:43:49;;;;;;;;;;;16.50;97.10;;;;;;4360185;33;43485;-77
2022/07/02 05:46:16;;;;;;;;;;;16.50;97.10;;;;;;4346685;33;43848;-76
2022/07/02 05:48:43;;;;;;;;;;;16.50;97.10;;;;;;4346407;33;43449;-76
2022/07/02 05:51:10;;;;;;;;;;;16.60;97.20;;;;;;4346411;33;44089;-76
2022/07/02 05:53:38;;;;;;;;;;;16.60;97.20;;;;;;4346537;33;42056;-76
2022/07/02 05:56:05;;;;;;;;;;;16.50;97.20;;;;;;4346148;33;43490;-75
2022/07/02 05:58:32;;;;;;;;;;;16.50;97.20;;;;;;4359384;33;44466;-75
2022/07/02 06:00:59;;;;;;;;;;;16.50;97.10;;;;;;4360042;33;43930;-76
2022/07/02 06:03:26;;;;;;;;;;;16.60;97.10;;;;;;4343482;33;44189;-75
2022/07/02 06:08:39;;;;;;;;;;;16.60;97.00;;;;;;4347978;33;43486;-76
2022/07/02 06:11:07;;;;;;;;;;;16.60;97.00;;;;;;4346872;33;43339;-76
2022/07/02 06:13:34;;;;;;;;;;;16.60;97.10;;;;;;4346885;33;44207;-75
2022/07/02 06:16:01;;;;;;;;;;;16.60;97.20;;;;;;4347806;33;44191;-75
2022/07/02 06:18:28;;;;;;;;;;;16.60;97.40;;;;;;4347758;33;43838;-76
2022/07/02 06:20:55;;;;;;;;;;;16.60;97.30;;;;;;4347209;33;43410;-76
2022/07/02 06:23:22;;;;;;;;;;;16.60;97.20;;;;;;4347634;33;43817;-76
2022/07/02 06:25:50;;;;;;;;;;;16.60;96.80;;;;;;4345525;33;42055;-75
2022/07/02 06:28:17;;;;;;;;;;;16.60;97.00;;;;;;4347180;33;43838;-77
2022/07/02 06:30:44;;;;;;;;;;;16.70;96.90;;;;;;4346522;33;43247;-78
2022/07/02 06:33:11;;;;;;;;;;;16.60;96.90;;;;;;4347314;33;45837;-74
2022/07/02 06:35:40;;;;;;;;;;;16.70;96.90;;;;;;4347482;33;43538;-76
2022/07/02 06:38:07;;;;;;;;;;;16.70;97.00;;;;;;4346958;33;43355;-75
2022/07/02 06:40:34;;;;;;;;;;;16.70;97.00;;;;;;4346066;33;43801;-75
2022/07/02 06:43:01;;;;;;;;;;;16.70;96.80;;;;;;4347135;33;44104;-74
2022/07/02 06:45:29;;;;;;;;;;;16.70;96.70;;;;;;4347160;33;43812;-75
2022/07/02 06:47:56;;;;;;;;;;;16.70;96.90;;;;;;4347187;33;44188;-75
2022/07/02 06:50:26;;;;;;;;;;;16.70;96.90;;;;;;4345681;33;42914;-74
2022/07/02 06:52:59;;;;;;;;;;;16.70;97.10;;;;;;4346295;33;43920;-76
2022/07/02 06:55:26;;;;;;;;;;;16.80;96.90;;;;;;4347316;33;43952;-79
2022/07/02 06:57:53;;;;;;;;;;;16.70;96.70;;;;;;4346942;33;42843;-75
2022/07/02 07:00:23;;;;;;;;;;;16.80;96.70;;;;;;4345949;33;44184;-75
2022/07/02 07:02:51;;;;;;;;;;;16.80;96.70;;;;;;4356767;32;44063;-77
2022/07/02 07:05:22;;;;;;;;;;;16.80;96.50;;;;;;4349430;32;44053;-74
2022/07/02 07:07:49;;;;;;;;;;;16.80;96.60;;;;;;4348475;32;43995;-75
2022/07/02 07:10:16;;;;;;;;;;;16.80;96.70;;;;;;4361623;32;43233;-73
2022/07/02 07:12:43;;;;;;;;;;;16.80;96.80;;;;;;4361760;32;43945;-75
2022/07/02 07:15:10;;;;;;;;;;;16.80;96.60;;;;;;4361127;32;44347;-75
2022/07/02 07:17:37;;;;;;;;;;;16.90;96.70;;;;;;4347891;32;43582;-74
2022/07/02 07:20:16;;;;;;;;;;;16.90;96.60;;;;;;4348776;32;44027;-76
2022/07/02 07:22:43;;;;;;;;;;;16.90;96.80;;;;;;4348480;32;43800;-80
2022/07/02 07:25:10;;;;;;;;;;;16.90;96.40;;;;;;4361252;32;43408;-79
2022/07/02 07:27:37;;;;;;;;;;;16.90;96.40;;;;;;4361478;32;43094;-79
2022/07/02 07:30:05;;;;;;;;;;;17.00;96.50;;;;;;4361514;32;43352;-79
2022/07/02 07:32:34;;;;;;;;;;;17.00;96.30;;;;;;4361512;32;43222;-81
2022/07/02 07:35:01;;;;;;;;;;;17.00;96.30;;;;;;4361007;32;43255;-80
2022/07/02 07:37:28;;;;;;;;;;;17.00;96.30;;;;;;4347820;32;43581;-81
2022/07/02 07:39:55;;;;;;;;;;;17.00;96.40;;;;;;4348161;32;44411;-86
2022/07/02 07:42:23;;;;;;;;;;;17.00;96.30;;;;;;4361299;32;43594;-84
2022/07/02 07:44:50;;;;;;;;;;;17.00;96.30;;;;;;4361277;32;43881;-84
2022/07/02 07:47:17;;;;;;;;;;;17.10;96.20;;;;;;4361068;32;43478;-81
2022/07/02 07:49:44;;;;;;;;;;;17.10;96.20;;;;;;4360773;32;42900;-80
2022/07/02 07:52:11;;;;;;;;;;;17.10;96.20;;;;;;4361029;32;44826;-80
2022/07/02 07:54:38;;;;;;;;;;;17.10;96.10;;;;;;4360843;32;44015;-79
2022/07/02 07:57:06;;;;;;;;;;;17.10;96.10;;;;;;4361149;32;44517;-80
2022/07/02 07:59:33;;;;;;;;;;;17.10;96.40;;;;;;4347692;32;43074;-79
2022/07/02 08:02:00;;;;;;;;;;;17.20;96.20;;;;;;4360926;32;44232;-79
2022/07/02 08:04:29;;;;;;;;;;;17.20;96.20;;;;;;4360822;32;43904;-83
2022/07/02 08:06:56;;;;;;;;;;;17.20;96.00;;;;;;4360760;32;44441;-79
2022/07/02 08:09:23;;;;;;;;;;;17.20;95.70;;;;;;4360905;32;43201;-82
2022/07/02 08:11:50;;;;;;;;;;;17.20;95.70;;;;;;4360782;32;43994;-80
2022/07/02 08:14:17;;;;;;;;;;;17.20;95.50;;;;;;4347356;32;43488;-80
2022/07/02 08:16:44;;;;;;;;;;;17.20;95.90;;;;;;4347916;32;43259;-80
2022/07/02 08:19:13;;;;;;;;;;;17.30;95.90;;;;;;4347152;32;43859;-80
2022/07/02 08:21:41;;;;;;;;;;;17.30;95.80;;;;;;4360391;32;42987;-86
2022/07/02 08:24:08;;;;;;;;;;;17.30;95.80;;;;;;4347024;32;44076;-80
2022/07/02 08:26:35;;;;;;;;;;;17.40;95.50;;;;;;4360203;32;44216;-80
2022/07/02 08:29:02;;;;;;;;;;;17.40;95.50;;;;;;4360217;32;44227;-78
2022/07/02 08:31:29;;;;;;;;;;;17.40;95.30;;;;;;4360270;32;44235;-77
2022/07/02 08:33:56;;;;;;;;;;;17.40;95.00;;;;;;4346308;32;42632;-77
2022/07/02 08:36:23;;;;;;;;;;;17.40;95.20;;;;;;4360613;32;46084;-80
2022/07/02 08:38:50;;;;;;;;;;;17.40;95.50;;;;;;4360110;32;44109;-79
2022/07/02 08:41:18;;;;;;;;;;;17.50;95.40;;;;;;4360014;32;43120;-79
2022/07/02 08:43:47;;;;;;;;;;;17.40;95.30;;;;;;4347358;32;19997;-77
2022/07/02 08:46:15;;;;;;;;;;;17.50;94.70;;;;;;4346860;32;44211;-79
2022/07/02 08:48:42;;;;;;;;;;;17.50;94.70;;;;;;4347414;32;43754;-79
2022/07/02 08:51:10;;;;;;;;;;;17.50;94.80;;;;;;4346696;32;43125;-80
2022/07/02 08:53:40;;;;;;;;;;;17.50;94.70;;;;;;4347005;32;43482;-81
2022/07/02 08:56:08;;;;;;;;;;;17.50;94.90;;;;;;4346913;32;43994;-78
2022/07/02 08:58:36;;;;;;;;;;;17.50;94.60;;;;;;4346477;32;44236;-79
2022/07/02 09:01:05;;;;;;;;;;;17.50;94.70;;;;;;4359862;32;44028;-77
2022/07/02 09:03:32;;;;;;;;;;;17.60;94.50;;;;;;4346423;32;44211;-80
2022/07/02 09:06:00;;;;;;;;;;;17.60;94.70;;;;;;4346456;32;43756;-77
2022/07/02 09:08:27;;;;;;;;;;;17.60;94.40;;;;;;4345953;32;45181;-79
2022/07/02 09:10:56;;;;;;;;;;;17.60;94.60;;;;;;4359709;32;43307;-80
2022/07/02 09:13:24;;;;;;;;;;;17.60;94.60;;;;;;4346345;32;42888;-81
2022/07/02 09:15:52;;;;;;;;;;;17.70;94.40;;;;;;4346944;32;43948;-79
2022/07/02 09:18:19;;;;;;;;;;;17.60;93.90;;;;;;4346795;32;43979;-79
2022/07/02 09:20:46;;;;;;;;;;;17.70;94.70;;;;;;4360266;32;42889;-80
2022/07/02 09:23:22;;;;;;;;;;;17.70;94.60;;;;;;4346668;32;43169;-80
2022/07/02 09:25:50;;;;;;;;;;;17.70;94.20;;;;;;4360247;32;44250;-81
2022/07/02 09:28:17;;;;;;;;;;;17.70;94.10;;;;;;4359975;33;43032;-80
2022/07/02 09:30:44;;;;;;;;;;;17.80;94.00;;;;;;4346463;33;43691;-82
2022/07/02 09:33:31;;;;;;;;;;;17.80;93.80;;;;;;4346603;33;43856;-80
2022/07/02 09:35:59;;;;;;;;;;;17.80;93.80;;;;;;4346694;33;43188;-82
2022/07/02 09:38:26;;;;;;;;;;;17.80;93.40;;;;;;4347636;32;43469;-78
2022/07/02 09:40:54;;;;;;;;;;;17.80;94.00;;;;;;4349305;32;43862;-83
2022/07/02 09:43:28;;;;;;;;;;;17.80;93.50;;;;;;4363153;32;43918;-79
2022/07/02 09:45:56;;;;;;;;;;;17.90;93.30;;;;;;4362676;32;44213;-80
2022/07/02 09:48:23;;;;;;;;;;;17.90;94.00;;;;;;4349286;32;42615;-81
2022/07/02 09:50:52;;;;;;;;;;;17.90;93.50;;;;;;4362941;32;44207;-80
2022/07/02 09:53:22;;;;;;;;;;;17.90;93.70;;;;;;4362457;32;44204;-78
2022/07/02 09:55:50;;;;;;;;;;;17.90;93.80;;;;;;4362674;32;44191;-80
2022/07/02 09:58:24;;;;;;;;;;;18.00;93.50;;;;;;4349611;32;43953;-80
2022/07/02 10:00:52;;;;;;;;;;;18.00;93.20;;;;;;4362469;32;43804;-81
2022/07/02 10:03:20;;;;;;;;;;;18.00;93.30;;;;;;4362331;32;44224;-80
2022/07/02 10:05:52;;;;;;;;;;;18.00;93.10;;;;;;4362395;32;43486;-80
2022/07/02 10:08:22;;;;;;;;;;;18.00;93.20;;;;;;4362607;32;44173;-81
2022/07/02 10:10:50;;;;;;;;;;;18.00;92.90;;;;;;4362632;32;44257;-80
2022/07/02 10:13:17;;;;;;;;;;;18.00;92.60;;;;;;4362554;32;43819;-84
2022/07/02 10:15:50;;;;;;;;;;;18.10;92.90;;;;;;4349790;32;20402;-81
2022/07/02 10:18:18;;;;;;;;;;;18.10;92.40;;;;;;4349435;32;43961;-80
2022/07/02 10:20:46;;;;;;;;;;;18.10;92.30;;;;;;4362360;32;43803;-80
2022/07/02 10:23:14;;;;;;;;;;;18.10;92.90;;;;;;4348812;32;43474;-79
2022/07/02 10:25:43;;;;;;;;;;;18.10;92.60;;;;;;4348698;32;42483;-81
2022/07/02 10:28:10;;;;;;;;;;;18.20;92.40;;;;;;4349036;32;43882;-79
2022/07/02 10:30:37;;;;;;;;;;;18.20;92.50;;;;;;4349040;32;44748;-80
2022/07/02 10:33:07;;;;;;;;;;;18.20;92.50;;;;;;4361823;32;46144;-80
2022/07/02 10:35:34;;;;;;;;;;;18.30;92.10;;;;;;4362378;32;44129;-79
2022/07/02 10:38:02;;;;;;;;;;;18.30;91.90;;;;;;4361861;32;42240;-81
2022/07/02 10:40:29;;;;;;;;;;;18.30;91.80;;;;;;4362206;32;43561;-82
2022/07/02 10:42:59;;;;;;;;;;;18.30;92.00;;;;;;4348760;32;42976;-82
2022/07/02 10:45:27;;;;;;;;;;;18.40;92.90;;;;;;4361696;32;43146;-85
2022/07/02 10:47:57;;;;;;;;;;;18.40;92.90;;;;;;4348903;32;45804;-81
2022/07/02 10:50:39;;;;;;;;;;;18.50;92.50;;;;;;4361292;32;42575;-82
2022/07/02 10:53:14;;;;;;;;;;;18.50;92.20;;;;;;4348218;32;44995;-84
2022/07/02 10:55:44;;;;;;;;;;;18.50;92.30;;;;;;4348553;32;43826;-80
2022/07/02 10:58:19;;;;;;;;;;;18.50;92.70;;;;;;4348592;32;45278;-82
2022/07/02 11:00:46;;;;;;;;;;;18.50;92.80;;;;;;4348167;32;43337;-80
2022/07/02 11:03:17;;;;;;;;;;;18.60;92.60;;;;;;4361800;32;43896;-81
2022/07/02 11:06:00;;;;;;;;;;;18.60;92.60;;;;;;4348716;32;44727;-81
2022/07/02 11:08:39;;;;;;;;;;;18.60;92.60;;;;;;4348153;32;43916;-80
2022/07/02 11:11:06;;;;;;;;;;;18.60;93.30;;;;;;4362007;32;43949;-83
2022/07/02 11:13:37;;;;;;;;;;;18.70;93.00;;;;;;4361617;32;45328;-84
2022/07/02 11:16:16;;;;;;;;;;;18.80;92.80;;;;;;4361430;32;45061;-82
2022/07/02 11:18:45;;;;;;;;;;;18.80;92.80;;;;;;4360964;32;43000;-80
2022/07/02 11:21:12;;;;;;;;;;;18.80;93.10;;;;;;4359774;32;45865;-80
2022/07/02 11:23:40;;;;;;;;;;;18.90;92.40;;;;;;4354022;32;44095;-82
2022/07/02 11:26:07;;;;;;;;;;;18.90;92.80;;;;;;4359939;32;43936;-81
2022/07/02 11:28:35;;;;;;;;;;;18.90;92.50;;;;;;4332341;33;42774;-79
2022/07/02 11:31:04;;;;;;;;;;;18.90;92.50;;;;;;4345093;33;44119;-83
2022/07/02 11:33:32;;;;;;;;;;;19.00;92.50;;;;;;4333419;33;44351;-81
2022/07/02 11:35:59;;;;;;;;;;;19.00;92.40;;;;;;4333132;33;44248;-83
2022/07/02 11:38:26;;;;;;;;;;;19.00;92.50;;;;;;4333378;33;44125;-83
2022/07/02 11:40:53;;;;;;;;;;;19.10;92.40;;;;;;4333223;33;43482;-81
2022/07/02 11:43:20;;;;;;;;;;;19.10;92.60;;;;;;4346435;33;44310;-81
2022/07/02 11:45:48;;;;;;;;;;;19.10;92.30;;;;;;4346078;33;44093;-80
2022/07/02 11:48:19;;;;;;;;;;;19.10;92.40;;;;;;4347260;33;20417;-82
2022/07/02 11:51:00;;;;;;;;;;;19.10;92.60;;;;;;4332744;33;45301;-84
2022/07/02 11:53:34;;;;;;;;;;;19.10;92.80;;;;;;4346340;33;43342;-80
2022/07/02 11:56:04;;;;;;;;;;;19.20;92.50;;;;;;4333153;33;44599;-82
2022/07/02 11:58:38;;;;;;;;;;;19.20;92.30;;;;;;4346542;33;43910;-82
2022/07/02 12:01:16;;;;;;;;;;;19.20;92.60;;;;;;4332679;33;43846;-83
2022/07/02 12:03:46;;;;;;;;;;;19.20;92.40;;;;;;4332957;33;44678;-80
2022/07/02 12:06:13;;;;;;;;;;;19.20;92.50;;;;;;4332579;33;42824;-82
2022/07/02 12:08:41;;;;;;;;;;;19.30;92.20;;;;;;4345756;33;43533;-83
2022/07/02 12:11:15;;;;;;;;;;;19.30;92.40;;;;;;4332840;33;44083;-84
2022/07/02 12:13:43;;;;;;;;;;;19.30;92.60;;;;;;4346064;33;43984;-84
2022/07/02 12:16:21;;;;;;;;;;;19.30;92.10;;;;;;4346012;33;45802;-86
2022/07/02 12:19:07;;;;;;;;;;;19.40;92.20;;;;;;4333816;33;20057;-81
2022/07/02 12:21:44;;;;;;;;;;;19.40;92.30;;;;;;4346024;33;45427;-82
2022/07/02 12:24:24;;;;;;;;;;;19.40;91.90;;;;;;4332848;33;43105;-82
2022/07/02 12:26:56;;;;;;;;;;;19.40;92.30;;;;;;4332590;33;44311;-81
2022/07/02 12:32:15;;;;;;;;;;;19.50;92.50;;;;;;4345863;33;45545;-81
2022/07/02 12:34:43;;;;;;;;;;;19.50;92.30;;;;;;4345361;33;42617;-82
2022/07/02 12:37:25;;;;;;;;;;;19.50;92.20;;;;;;4345834;33;44028;-85
2022/07/02 12:40:00;;;;;;;;;;;19.50;91.50;;;;;;4332731;33;44175;-82
2022/07/02 12:42:28;;;;;;;;;;;19.60;92.10;;;;;;4332001;33;44626;-84
2022/07/02 12:44:57;;;;;;;;;;;19.60;91.90;;;;;;4345714;33;44159;-81
2022/07/02 12:47:25;;;;;;;;;;;19.60;91.70;;;;;;4345691;33;43962;-81
2022/07/02 12:49:57;;;;;;;;;;;19.70;91.50;;;;;;4345608;33;43885;-82
2022/07/02 12:52:27;;;;;;;;;;;19.60;91.80;;;;;;4332741;33;44248;-80
2022/07/02 12:54:57;;;;;;;;;;;19.70;91.60;;;;;;4345043;33;44230;-82
2022/07/02 12:57:25;;;;;;;;;;;19.70;92.10;;;;;;4331864;33;43372;-82
2022/07/02 12:59:53;;;;;;;;;;;19.80;91.60;;;;;;4345491;33;43998;-84
2022/07/02 13:02:25;;;;;;;;;;;19.80;91.50;;;;;;4329086;33;44192;-83
2022/07/02 13:04:56;;;;;;;;;;;19.80;91.50;;;;;;4329445;33;43210;-82
2022/07/02 13:07:23;;;;;;;;;;;19.80;91.70;;;;;;4330230;33;44611;-83
2022/07/02 13:09:50;;;;;;;;;;;19.90;91.30;;;;;;4329408;33;42576;-81
2022/07/02 13:12:17;;;;;;;;;;;19.90;91.70;;;;;;4328984;33;44692;-79
2022/07/02 13:14:45;;;;;;;;;;;19.90;91.80;;;;;;4329928;33;44091;-82
2022/07/02 13:17:15;;;;;;;;;;;20.00;92.10;;;;;;4329580;33;44084;-81
2022/07/02 13:20:03;;;;;;;;;;;19.90;92.00;;;;;;4329798;33;42635;-80
2022/07/02 13:22:32;;;;;;;;;;;20.00;91.70;;;;;;4330639;33;43928;-79
2022/07/02 13:25:00;;;;;;;;;;;20.10;91.10;;;;;;4330517;33;43431;-81
2022/07/02 13:27:27;;;;;;;;;;;20.00;91.40;;;;;;4329490;33;43489;-81
2022/07/02 13:29:54;;;;;;;;;;;20.10;91.30;;;;;;4329033;33;43115;-83
2022/07/02 13:32:21;;;;;;;;;;;20.10;90.80;;;;;;4329114;33;43509;-83
2022/07/02 13:34:48;;;;;;;;;;;20.10;91.00;;;;;;4329963;33;43317;-81
2022/07/02 13:37:19;;;;;;;;;;;20.10;91.90;;;;;;4329574;33;44195;-80
2022/07/02 13:39:48;;;;;;;;;;;20.20;91.80;;;;;;4330498;33;44700;-81
2022/07/02 13:42:15;;;;;;;;;;;20.20;91.40;;;;;;4330481;33;45576;-82
2022/07/02 13:44:42;;;;;;;;;;;20.20;91.20;;;;;;4329063;33;43782;-84
2022/07/02 13:47:09;;;;;;;;;;;20.30;91.70;;;;;;4330074;33;46057;-80
2022/07/02 13:49:37;;;;;;;;;;;20.30;91.50;;;;;;4328954;33;44530;-80
2022/07/02 13:52:04;;;;;;;;;;;20.30;91.50;;;;;;4329934;33;42579;-80
2022/07/02 13:54:32;;;;;;;;;;;20.30;91.40;;;;;;4329253;33;44291;-80
2022/07/02 13:57:00;;;;;;;;;;;20.30;91.00;;;;;;4328830;33;43852;-80
2022/07/02 13:59:27;;;;;;;;;;;20.40;91.40;;;;;;4329006;33;43267;-80
2022/07/02 14:01:57;;;;;;;;;;;20.40;91.50;;;;;;4334054;33;44298;-82
2022/07/02 14:04:24;;;;;;;;;;;20.40;91.20;;;;;;4344848;33;43402;-86
2022/07/02 14:06:51;;;;;;;;;;;20.40;90.90;;;;;;4331547;33;43183;-81
2022/07/02 14:09:18;;;;;;;;;;;20.40;90.70;;;;;;4331966;33;44222;-81
2022/07/02 14:11:45;;;;;;;;;;;20.40;90.80;;;;;;4345030;33;43908;-81
2022/07/02 14:14:13;;;;;;;;;;;20.40;91.20;;;;;;4344598;33;43992;-82
2022/07/02 14:16:40;;;;;;;;;;;20.40;91.30;;;;;;4344801;33;42669;-82
2022/07/02 14:19:07;;;;;;;;;;;20.50;90.70;;;;;;4344487;33;44291;-81
2022/07/02 14:21:34;;;;;;;;;;;20.50;91.20;;;;;;4344562;33;43864;-80
2022/07/02 14:24:06;;;;;;;;;;;20.50;91.00;;;;;;4331618;33;42709;-81
2022/07/02 14:26:33;;;;;;;;;;;20.50;90.80;;;;;;4346995;33;42930;-80
2022/07/02 14:29:03;;;;;;;;;;;20.50;91.20;;;;;;4347194;33;44703;-80
2022/07/02 14:31:30;;;;;;;;;;;20.50;91.60;;;;;;4334031;33;44228;-82